createdAt,value
2023-05-21T00:04:17.863Z,95466.00
2023-05-21T00:07:52.687Z,95465.00
2023-05-21T00:10:58.472Z,95469.00
2023-05-21T00:13:44.330Z,95460.00
2023-05-21T00:16:30.535Z,95469.00
2023-05-21T00:19:17.646Z,95465.00
2023-05-21T00:22:04.488Z,95460.00
2023-05-21T00:24:49.924Z,95461.00
2023-05-21T00:27:36.431Z,95467.00
2023-05-21T00:30:24.253Z,95453.00
2023-05-21T00:33:10.597Z,95453.00
2023-05-21T00:35:57.527Z,95451.00
2023-05-21T00:38:44.356Z,95441.00
2023-05-21T00:41:30.614Z,95444.00
2023-05-21T00:44:18.612Z,95444.00
2023-05-21T00:47:06.575Z,95439.00
2023-05-21T00:49:53.411Z,95435.00
2023-05-21T00:52:42.235Z,95440.00
2023-05-21T00:55:28.948Z,95435.00
2023-05-21T00:58:17.983Z,95437.00
2023-05-21T01:01:07.058Z,95440.00
2023-05-21T01:03:57.661Z,95446.00
2023-05-21T01:06:44.478Z,95442.00
2023-05-21T01:09:31.556Z,95446.00
2023-05-21T01:12:18.919Z,95450.00
2023-05-21T01:15:06.413Z,95443.00
2023-05-21T01:17:53.155Z,95435.00
2023-05-21T01:20:39.890Z,95441.00
2023-05-21T01:23:26.134Z,95439.00
2023-05-21T01:26:13.041Z,95438.00
2023-05-21T01:29:01.042Z,95440.00
2023-05-21T01:32:05.548Z,95439.00
2023-05-21T01:35:24.963Z,95426.00
2023-05-21T01:38:19.592Z,95440.00
2023-05-21T01:41:11.553Z,95435.00
2023-05-21T01:43:57.794Z,95433.00
2023-05-21T01:46:45.479Z,95432.00
2023-05-21T01:49:33.880Z,95435.00
2023-05-21T01:52:19.904Z,95439.00
2023-05-21T01:55:06.889Z,95438.00
2023-05-21T01:57:55.994Z,95432.00
2023-05-21T02:00:41.996Z,95431.00
2023-05-21T02:03:31.265Z,95431.00
2023-05-21T02:06:17.781Z,95430.00
2023-05-21T02:09:03.882Z,95431.00
2023-05-21T02:11:49.701Z,95425.00
2023-05-21T02:14:36.286Z,95426.00
2023-05-21T02:17:24.714Z,95430.00
2023-05-21T02:20:11.884Z,95415.00
2023-05-21T02:22:58.711Z,95426.00
2023-05-21T02:25:44.568Z,95428.00
2023-05-21T02:28:32.708Z,95428.00
2023-05-21T02:31:19.234Z,95420.00
2023-05-21T02:34:05.004Z,95410.00
2023-05-21T02:36:54.623Z,95425.00
2023-05-21T02:39:41.546Z,95416.00
2023-05-21T02:42:27.721Z,95400.00
2023-05-21T02:45:16.734Z,95404.00
2023-05-21T02:48:02.578Z,95400.00
2023-05-21T02:50:51.984Z,95401.00
2023-05-21T02:53:39.549Z,95399.00
2023-05-21T02:56:26.649Z,95404.00
2023-05-21T02:59:12.917Z,95401.00
2023-05-21T03:01:58.344Z,95396.00
2023-05-21T03:04:47.860Z,95398.00
2023-05-21T03:07:34.589Z,95397.00
2023-05-21T03:10:21.455Z,95399.00
2023-05-21T03:13:09.664Z,95401.00
2023-05-21T03:15:56.824Z,95404.00
2023-05-21T03:18:44.677Z,95398.00
2023-05-21T03:21:32.315Z,95403.00
2023-05-21T03:24:18.692Z,95396.00
2023-05-21T03:27:09.300Z,95397.00
2023-05-21T03:29:55.805Z,95390.00
2023-05-21T03:32:45.445Z,95395.00
2023-05-21T03:35:31.344Z,95394.00
2023-05-21T03:38:17.203Z,95394.00
2023-05-21T03:41:04.102Z,95399.00
2023-05-21T03:43:50.154Z,95392.00
2023-05-21T03:46:37.530Z,95392.00
2023-05-21T03:49:30.522Z,95389.00
2023-05-21T03:52:18.241Z,95391.00
2023-05-21T03:55:04.435Z,95394.00
2023-05-21T03:57:52.588Z,95405.00
2023-05-21T04:00:38.401Z,95395.00
2023-05-21T04:03:25.283Z,95402.00
2023-05-21T04:06:11.154Z,95392.00
2023-05-21T04:08:59.274Z,95398.00
2023-05-21T04:11:46.825Z,95398.00
2023-05-21T04:14:33.438Z,95409.00
2023-05-21T04:17:20.799Z,95412.00
2023-05-21T04:20:09.372Z,95414.00
2023-05-21T04:22:55.603Z,95422.00
2023-05-21T04:25:42.004Z,95416.00
2023-05-21T04:28:28.812Z,95429.00
2023-05-21T04:31:15.257Z,95430.00
2023-05-21T04:34:01.104Z,95438.00
2023-05-21T04:36:47.217Z,95436.00
2023-05-21T04:39:34.857Z,95441.00
2023-05-21T04:42:24.052Z,95440.00
2023-05-21T04:45:11.532Z,95440.00
2023-05-21T04:48:00.546Z,95447.00
2023-05-21T04:50:48.154Z,95444.00
2023-05-21T04:53:36.122Z,95449.00
2023-05-21T04:56:28.193Z,95449.00
2023-05-21T04:59:14.431Z,95451.00
2023-05-21T05:02:00.719Z,95451.00
2023-05-21T05:04:46.786Z,95460.00
2023-05-21T05:07:33.447Z,95453.00
2023-05-21T05:10:19.533Z,95448.00
2023-05-21T05:13:05.036Z,95451.00
2023-05-21T05:15:54.585Z,95447.00
2023-05-21T05:18:40.859Z,95451.00
2023-05-21T05:21:27.208Z,95458.00
2023-05-21T05:24:13.179Z,95449.00
2023-05-21T05:26:59.806Z,95454.00
2023-05-21T05:29:46.256Z,95458.00
2023-05-21T05:32:31.917Z,95459.00
2023-05-21T05:35:18.103Z,95458.00
2023-05-21T05:38:04.765Z,95463.00
2023-05-21T05:40:50.807Z,95451.00
2023-05-21T05:43:37.252Z,95458.00
2023-05-21T05:46:24.250Z,95448.00
2023-05-21T05:49:10.624Z,95461.00
2023-05-21T05:51:56.720Z,95451.00
2023-05-21T05:54:42.132Z,95446.00
2023-05-21T05:57:28.465Z,95458.00
2023-05-21T06:00:19.900Z,95447.00
2023-05-21T06:03:08.049Z,95445.00
2023-05-21T06:05:54.981Z,95440.00
2023-05-21T06:08:44.133Z,95445.00
2023-05-21T06:11:31.670Z,95445.00
2023-05-21T06:14:17.819Z,95449.00
2023-05-21T06:17:03.617Z,95451.00
2023-05-21T06:19:49.742Z,95444.00
2023-05-21T06:22:36.887Z,95441.00
2023-05-21T06:25:25.797Z,95452.00
2023-05-21T06:28:12.222Z,95450.00
2023-05-21T06:30:58.490Z,95451.00
2023-05-21T06:38:36.965Z,95473.00
2023-05-21T06:41:23.061Z,95464.00
2023-05-21T06:44:12.911Z,95461.00
2023-05-21T06:46:59.007Z,95462.00
2023-05-21T06:49:44.980Z,95460.00
2023-05-21T06:52:31.831Z,95459.00
2023-05-21T06:55:20.014Z,95454.00
2023-05-21T06:58:26.141Z,95462.00
2023-05-21T07:01:12.527Z,95471.00
2023-05-21T07:03:59.120Z,95467.00
2023-05-21T07:06:48.496Z,95460.00
2023-05-21T07:09:34.984Z,95467.00
2023-05-21T07:12:20.557Z,95466.00
2023-05-21T07:15:09.374Z,95471.00
2023-05-21T07:17:55.411Z,95464.00
2023-05-21T07:20:41.161Z,95464.00
2023-05-21T07:23:31.550Z,95462.00
2023-05-21T07:26:17.891Z,95464.00
2023-05-21T07:29:04.539Z,95472.00
2023-05-21T07:31:51.144Z,95473.00
2023-05-21T07:34:37.534Z,95469.00
2023-05-21T07:37:25.714Z,95474.00
2023-05-21T07:40:12.302Z,95469.00
2023-05-21T07:42:58.493Z,95465.00
2023-05-21T07:45:48.206Z,95464.00
2023-05-21T07:48:35.704Z,95463.00
2023-05-21T07:55:02.986Z,95469.00
2023-05-21T07:58:02.135Z,95472.00
2023-05-21T08:00:58.602Z,95463.00
2023-05-21T08:03:53.440Z,95478.00
2023-05-21T08:06:46.305Z,95479.00
2023-05-21T08:09:51.987Z,95478.00
2023-05-21T08:12:43.777Z,95468.00
2023-05-21T08:15:33.713Z,95479.00
2023-05-21T08:18:40.084Z,95477.00
2023-05-21T08:21:34.858Z,95477.00
2023-05-21T08:24:21.054Z,95472.00
2023-05-21T08:27:21.989Z,95479.00
2023-05-21T08:30:11.949Z,95475.00
2023-05-21T08:33:01.553Z,95476.00
2023-05-21T08:36:06.176Z,95481.00
2023-05-21T08:39:11.239Z,95479.00
2023-05-21T08:42:22.597Z,95474.00
2023-05-21T08:45:26.296Z,95470.00
2023-05-21T08:48:17.153Z,95484.00
2023-05-21T08:51:14.282Z,95466.00
2023-05-21T08:54:19.579Z,95479.00
2023-05-21T08:57:09.511Z,95485.00
2023-05-21T09:00:09.047Z,95489.00
2023-05-21T09:03:25.530Z,95492.00
2023-05-21T09:06:34.494Z,95486.00
2023-05-21T09:10:11.756Z,95498.00
2023-05-21T09:13:13.244Z,95502.00
2023-05-21T09:16:05.385Z,95495.00
2023-05-21T09:19:07.660Z,95488.00
2023-05-21T09:22:22.468Z,95507.00
2023-05-21T09:25:33.735Z,95505.00
2023-05-21T09:28:51.042Z,95501.00
2023-05-21T09:31:47.075Z,95501.00
2023-05-21T09:34:48.124Z,95496.00
2023-05-21T09:37:56.929Z,95490.00
2023-05-21T09:40:57.030Z,95500.00
2023-05-21T09:43:51.943Z,95498.00
2023-05-21T09:46:43.335Z,95494.00
2023-05-21T09:49:45.864Z,95500.00
2023-05-21T09:52:59.875Z,95504.00
2023-05-21T09:56:02.721Z,95499.00
2023-05-21T09:59:13.987Z,95508.00
2023-05-21T10:02:02.430Z,95501.00
2023-05-21T10:04:51.668Z,95500.00
2023-05-21T10:07:38.553Z,95504.00
2023-05-21T10:10:24.876Z,95506.00
2023-05-21T10:13:14.935Z,95497.00
2023-05-21T10:16:03.363Z,95508.00
2023-05-21T10:18:51.790Z,95501.00
2023-05-21T10:21:38.921Z,95504.00
2023-05-21T10:24:25.992Z,95505.00
2023-05-21T10:27:14.210Z,95502.00
2023-05-21T10:30:00.708Z,95503.00
2023-05-21T10:32:49.035Z,95504.00
2023-05-21T10:35:35.485Z,95500.00
2023-05-21T10:38:23.429Z,95503.00
2023-05-21T10:41:12.749Z,95506.00
2023-05-21T10:44:42.520Z,95507.00
2023-05-21T10:47:46.535Z,95504.00
2023-05-21T10:51:21.213Z,95502.00
2023-05-21T10:54:16.032Z,95505.00
2023-05-21T10:57:17.528Z,95508.00
2023-05-21T11:00:58.330Z,95495.00
2023-05-21T11:04:23.467Z,95486.00
2023-05-21T11:08:45.827Z,95504.00
2023-05-21T11:12:00.168Z,95497.00
2023-05-21T11:15:07.138Z,95491.00
2023-05-21T11:17:57.429Z,95486.00
2023-05-21T11:28:21.340Z,95482.00
2023-05-21T11:34:20.590Z,95484.00
2023-05-21T11:37:28.932Z,95480.00
2023-05-21T11:40:30.273Z,95479.00
2023-05-21T11:43:16.863Z,95485.00
2023-05-21T11:46:03.092Z,95474.00
2023-05-21T11:48:50.992Z,95475.00
2023-05-21T11:51:37.495Z,95478.00
2023-05-21T11:54:25.938Z,95477.00
2023-05-21T11:57:12.295Z,95481.00
2023-05-21T12:00:01.442Z,95488.00
2023-05-21T12:02:53.401Z,95483.00
2023-05-21T12:06:26.453Z,95479.00
2023-05-21T12:09:14.751Z,95484.00
2023-05-21T12:12:01.732Z,95483.00
2023-05-21T12:14:50.030Z,95476.00
2023-05-21T12:17:36.042Z,95479.00
2023-05-21T12:20:22.967Z,95477.00
2023-05-21T12:23:08.553Z,95482.00
2023-05-21T12:25:54.604Z,95485.00
2023-05-21T12:28:40.516Z,95472.00
2023-05-21T12:31:27.599Z,95473.00
2023-05-21T12:34:13.600Z,95478.00
2023-05-21T12:36:59.075Z,95476.00
2023-05-21T12:39:47.144Z,95473.00
2023-05-21T12:42:37.464Z,95468.00
2023-05-21T12:45:23.996Z,95467.00
2023-05-21T12:48:10.292Z,95463.00
2023-05-21T12:50:59.968Z,95466.00
2023-05-21T12:53:45.800Z,95468.00
2023-05-21T12:56:45.569Z,95472.00
2023-05-21T12:59:44.679Z,95465.00
2023-05-21T13:02:44.842Z,95464.00
2023-05-21T13:07:04.950Z,95466.00
2023-05-21T13:09:57.556Z,95464.00
2023-05-21T13:19:09.693Z,95463.00
2023-05-21T13:22:39.669Z,95463.00
2023-05-21T13:26:01.329Z,95461.00
2023-05-21T13:29:00.594Z,95446.00
2023-05-21T13:31:46.915Z,95458.00
2023-05-21T13:34:32.546Z,95463.00
2023-05-21T13:42:18.605Z,95453.00
2023-05-21T13:45:09.635Z,95449.00
2023-05-21T13:47:56.382Z,95448.00
2023-05-21T13:50:42.364Z,95447.00
2023-05-21T13:53:28.849Z,95444.00
2023-05-21T13:56:14.468Z,95448.00
2023-05-21T13:59:01.703Z,95449.00
2023-05-21T14:01:49.974Z,95447.00
2023-05-21T14:04:39.234Z,95452.00
2023-05-21T14:07:25.838Z,95443.00
2023-05-21T14:10:15.775Z,95439.00
2023-05-21T14:13:11.975Z,95442.00
2023-05-21T14:16:09.411Z,95447.00
2023-05-21T14:18:55.661Z,95444.00
2023-05-21T14:21:43.001Z,95446.00
2023-05-21T14:24:34.846Z,95442.00
2023-05-21T14:27:20.965Z,95440.00
2023-05-21T14:30:07.775Z,95442.00
2023-05-21T14:32:54.279Z,95443.00
2023-05-21T14:35:44.096Z,95443.00
2023-05-21T14:38:32.452Z,95441.00
2023-05-21T14:41:18.550Z,95442.00
2023-05-21T14:44:05.895Z,95434.00
2023-05-21T14:46:52.042Z,95434.00
2023-05-21T14:49:38.606Z,95433.00
2023-05-21T14:52:24.587Z,95435.00
2023-05-21T14:55:12.678Z,95428.00
2023-05-21T14:57:59.459Z,95430.00
2023-05-21T15:00:45.340Z,95427.00
2023-05-21T15:03:31.963Z,95428.00
2023-05-21T15:06:18.176Z,95430.00
2023-05-21T15:09:06.500Z,95426.00
2023-05-21T15:11:53.728Z,95428.00
2023-05-21T15:14:40.996Z,95428.00
2023-05-21T15:17:27.754Z,95425.00
2023-05-21T15:20:13.707Z,95419.00
2023-05-21T15:25:50.343Z,95415.00
2023-05-21T15:28:36.157Z,95416.00
2023-05-21T15:31:23.106Z,95414.00
2023-05-21T15:34:09.411Z,95407.00
2023-05-21T15:37:06.289Z,95403.00
2023-05-21T15:39:53.466Z,95410.00
2023-05-21T15:42:44.768Z,95407.00
2023-05-21T15:45:31.121Z,95403.00
2023-05-21T15:48:22.510Z,95402.00
2023-05-21T15:51:08.952Z,95401.00
2023-05-21T15:53:55.167Z,95409.00
2023-05-21T15:56:44.749Z,95404.00
2023-05-21T15:59:33.064Z,95398.00
2023-05-21T16:02:19.238Z,95398.00
2023-05-21T16:05:05.703Z,95398.00
2023-05-21T16:07:56.020Z,95397.00
2023-05-21T16:10:46.142Z,95399.00
2023-05-21T16:13:32.365Z,95396.00
2023-05-21T16:16:18.435Z,95402.00
2023-05-21T16:19:04.619Z,95397.00
2023-05-21T16:21:54.190Z,95394.00
2023-05-21T16:24:40.713Z,95389.00
2023-05-21T16:27:26.820Z,95386.00
2023-05-21T16:30:14.239Z,95385.00
2023-05-21T16:33:04.071Z,95394.00
2023-05-21T16:35:50.169Z,95395.00
2023-05-21T16:38:36.139Z,95394.00
2023-05-21T16:41:28.044Z,95393.00
2023-05-21T16:44:15.293Z,95390.00
2023-05-21T16:47:02.092Z,95395.00
2023-05-21T16:49:48.110Z,95397.00
2023-05-21T16:52:34.324Z,95399.00
2023-05-21T16:55:21.179Z,95399.00
2023-05-21T16:58:09.648Z,95406.00
2023-05-21T17:00:55.913Z,95393.00
2023-05-21T17:03:43.477Z,95394.00
2023-05-21T17:06:34.978Z,95405.00
2023-05-21T17:09:21.087Z,95401.00
2023-05-21T17:12:07.861Z,95398.00
2023-05-21T17:14:54.075Z,95399.00
2023-05-21T17:17:40.795Z,95399.00
2023-05-21T17:20:26.651Z,95409.00
2023-05-21T17:23:12.701Z,95411.00
2023-05-21T17:25:58.789Z,95408.00
2023-05-21T17:28:45.014Z,95413.00
2023-05-21T17:31:32.951Z,95424.00
2023-05-21T17:34:19.067Z,95424.00
2023-05-21T17:37:05.416Z,95425.00
2023-05-21T17:39:51.242Z,95434.00
2023-05-21T17:47:27.941Z,95448.00
2023-05-21T17:50:14.173Z,95442.00
2023-05-21T17:53:00.287Z,95447.00
2023-05-21T17:55:46.072Z,95443.00
2023-05-21T17:58:32.255Z,95437.00
2023-05-21T18:01:19.680Z,95438.00
2023-05-21T18:04:16.654Z,95439.00
2023-05-21T18:07:02.715Z,95441.00
2023-05-21T18:09:49.659Z,95439.00
2023-05-21T18:12:36.443Z,95435.00
2023-05-21T18:15:25.460Z,95431.00
2023-05-21T18:18:19.771Z,95440.00
2023-05-21T18:21:07.549Z,95440.00
2023-05-21T18:23:54.238Z,95439.00
2023-05-21T18:26:44.344Z,95444.00
2023-05-21T18:29:30.717Z,95447.00
2023-05-21T18:32:17.032Z,95447.00
2023-05-21T18:35:03.806Z,95447.00
2023-05-21T18:37:50.920Z,95444.00
2023-05-21T18:40:38.325Z,95446.00
2023-05-21T18:43:24.688Z,95452.00
2023-05-21T18:46:11.088Z,95440.00
2023-05-21T18:48:58.086Z,95458.00
2023-05-21T18:51:44.069Z,95452.00
2023-05-21T18:54:30.843Z,95451.00
2023-05-21T18:57:19.671Z,95454.00
2023-05-21T19:00:09.588Z,95458.00
2023-05-21T19:02:56.585Z,95447.00
2023-05-21T19:05:43.593Z,95460.00
2023-05-21T19:08:29.760Z,95454.00
2023-05-21T19:11:17.584Z,95463.00
2023-05-21T19:14:04.401Z,95476.00
2023-05-21T19:16:50.616Z,95472.00
2023-05-21T19:19:42.914Z,95480.00
2023-05-21T19:22:29.348Z,95469.00
2023-05-21T19:25:16.247Z,95478.00
2023-05-21T19:28:02.820Z,95479.00
2023-05-21T19:30:49.537Z,95486.00
2023-05-21T19:33:36.011Z,95490.00
2023-05-21T19:36:22.794Z,95481.00
2023-05-21T19:39:09.272Z,95482.00
2023-05-21T19:41:55.292Z,95492.00
2023-05-21T19:44:41.270Z,95485.00
2023-05-21T19:47:28.134Z,95490.00
2023-05-21T19:50:14.198Z,95493.00
2023-05-21T19:53:00.481Z,95503.00
2023-05-21T19:55:49.567Z,95495.00
2023-05-21T19:58:35.447Z,95497.00
2023-05-21T20:01:22.090Z,95496.00
2023-05-21T20:04:10.845Z,95498.00
2023-05-21T20:06:57.128Z,95508.00
2023-05-21T20:09:43.313Z,95496.00
2023-05-21T20:12:35.688Z,95499.00
2023-05-21T20:15:26.419Z,95497.00
2023-05-21T20:18:24.273Z,95503.00
2023-05-21T20:21:26.983Z,95505.00
2023-05-21T20:24:25.888Z,95499.00
2023-05-21T20:27:21.595Z,95503.00
2023-05-21T20:30:12.107Z,95507.00
2023-05-21T20:33:04.459Z,95508.00
2023-05-21T20:35:51.535Z,95505.00
2023-05-21T20:38:42.520Z,95500.00
2023-05-21T20:41:42.673Z,95503.00
2023-05-21T20:44:34.616Z,95506.00
2023-05-21T20:47:33.186Z,95504.00
2023-05-21T20:50:33.109Z,95506.00
2023-05-21T20:53:27.091Z,95501.00
2023-05-21T20:56:16.950Z,95497.00
2023-05-21T20:59:12.040Z,95501.00
2023-05-21T21:02:03.041Z,95498.00
2023-05-21T21:04:59.188Z,95499.00
2023-05-21T21:07:48.525Z,95504.00
2023-05-21T21:10:47.264Z,95498.00
2023-05-21T21:13:42.703Z,95503.00
2023-05-21T21:16:31.526Z,95501.00
2023-05-21T21:19:18.850Z,95514.00
2023-05-21T21:22:07.591Z,95508.00
2023-05-21T21:24:56.510Z,95511.00
2023-05-21T21:27:43.793Z,95517.00
2023-05-21T21:30:33.495Z,95521.00
2023-05-21T21:33:29.701Z,95512.00
2023-05-21T21:36:19.101Z,95514.00
2023-05-21T21:39:05.051Z,95510.00
2023-05-21T21:41:53.680Z,95518.00
2023-05-21T21:44:41.869Z,95509.00
2023-05-21T21:47:28.572Z,95510.00
2023-05-21T21:50:14.663Z,95508.00
2023-05-21T21:53:01.351Z,95509.00
2023-05-21T21:55:47.345Z,95510.00
2023-05-21T21:58:33.696Z,95517.00
2023-05-21T22:01:23.233Z,95505.00
2023-05-21T22:04:09.760Z,95514.00
2023-05-21T22:06:56.706Z,95514.00
2023-05-21T22:09:47.510Z,95506.00
2023-05-21T22:12:34.223Z,95516.00
2023-05-21T22:15:28.977Z,95517.00
2023-05-21T22:18:31.868Z,95512.00
2023-05-21T22:21:27.447Z,95507.00
2023-05-21T22:24:31.066Z,95510.00
2023-05-21T22:27:18.852Z,95506.00
2023-05-21T22:30:06.300Z,95511.00
2023-05-21T22:32:52.260Z,95513.00
2023-05-21T22:35:38.349Z,95519.00
2023-05-21T22:38:24.919Z,95510.00
2023-05-21T22:41:11.803Z,95514.00
2023-05-21T22:43:57.586Z,95526.00
2023-05-21T22:46:44.006Z,95530.00
2023-05-21T22:49:35.009Z,95528.00
2023-05-21T22:52:31.998Z,95525.00
2023-05-21T22:55:18.324Z,95519.00
2023-05-21T22:58:04.384Z,95512.00
2023-05-21T23:00:51.009Z,95512.00
2023-05-21T23:03:37.296Z,95511.00
2023-05-21T23:06:23.509Z,95512.00
2023-05-21T23:09:09.458Z,95514.00
2023-05-21T23:11:56.173Z,95518.00
2023-05-21T23:14:43.384Z,95511.00
2023-05-21T23:17:30.997Z,95514.00
2023-05-21T23:20:16.993Z,95507.00
2023-05-21T23:23:03.391Z,95511.00
2023-05-21T23:25:49.663Z,95515.00
2023-05-21T23:28:37.725Z,95509.00
2023-05-21T23:31:24.124Z,95514.00
2023-05-21T23:34:10.373Z,95515.00
2023-05-21T23:36:58.734Z,95501.00
2023-05-21T23:39:49.827Z,95508.00
2023-05-21T23:42:38.521Z,95511.00
2023-05-21T23:45:25.010Z,95509.00
2023-05-21T23:48:11.945Z,95508.00
2023-05-21T23:50:57.890Z,95507.00
2023-05-21T23:53:44.371Z,95509.00
2023-05-21T23:56:35.087Z,95506.00
2023-05-21T23:59:24.706Z,95511.00
